Shotwick, United Kingdom

8:03 AM GMT on February 24, 2018 (GMT +0000)
DMAC Flying Site | | Change Station

Elev 33 ft 53.24 °N, 3.06 °W | Updated 25 seconds ago

Partly Cloudy
Partly Cloudy
35.2 °F
Feels Like 27 °F
N
11.2
Wind Variable Wind from SE
Gusts 13.4 mph

Today
High -- | Low -- °F
--% Chance of Precip.
Yesterday
High -- | Low -- °F
Precip. -- in
Pressure 30.21 in
Visibility 6.2 miles
Clouds Few 2000 ft
Mostly Cloudy 2500 ft
Windchill 27 °F
Dew Point 25 °F
Humidity 56%
Rainfall 0.00 in
Snow Depth Not available.
7:10 AM 5:40 PM
First Quarter, 61% visible
METAR EGGP 240750Z 12010KT 9999 FEW020 BKN025 00/M04 Q1023
Pressure 30.21 in
Visibility 6.2 miles
Clouds Few 2000 ft
Mostly Cloudy 2500 ft
Windchill 27 °F
Dew Point 25 °F
Humidity 56%
Rainfall 0.00 in
Snow Depth Not available.
7:10 AM 5:40 PM
First Quarter, 61% visible
METAR EGGP 240750Z 12010KT 9999 FEW020 BKN025 00/M04 Q1023

Get Severe Weather Alerts

Thanks for signing up!

Be on the lookout for a verification email in your inbox.

You'll start receiving the daily forecast at 6 AM.

×

10-Day Weather Forecast

×

Almanac

Astronomy

Feb. 24, 2018 Rise Set
Actual Time
Civil Twilight
Nautical Twilight
Astronomical Twilight
Moon
Length of Visible Light
Length of Day
Tomorrow will be .
, % of the Moon is Illuminated

Today's Extremes

Country Highs Country Lows

Community

WunderPhotos

Category 6

Welcome to Category 6. This is the collective home for Weather Underground's featured writeups by Dr. Jeff Masters (right), Bob Henson (left), Chris Burt, and other regular contributors.

Nearby

Air Quality

  Air Quality AQ Index Pollutant
Not available.

Snow Depth

Station Depth Elevation

Earthquake Activity

City Distance Mag. Time & Date
Minimum magnitude displayed is 2.5.

Coastal Water Temperatures

Place Temperature

Stations

Nearby Weather Stations

Station Location Temp. Windchill Dew Point Humidity Wind Precip. Elev Updated Type